Time;durP1;ratioP1;P1;durP2;ratioP2;P2;SDS_P1;SDS_P2;PMS_P1;PMS_P2;Temp;Humidity;BMP_temperature;BMP_pressure;BME280_temperature;BME280_humidity;BME280_pressure;Samples;Min_cycle;Max_cycle;Signal;HPM_P1;HPM_P2
2022/05/31 00:01:49;;;;;;;1.80;1.00;;;;;;;8.50;79.99;100569.84;5051441;28;20201;-75
2022/05/31 00:04:16;;;;;;;1.07;0.97;;;;;;;8.46;79.79;100582.88;5051673;28;20230;-75
2022/05/31 00:06:43;;;;;;;1.20;0.97;;;;;;;8.54;79.33;100594.06;5051738;28;20292;-75
2022/05/31 00:09:09;;;;;;;1.53;0.80;;;;;;;8.48;78.64;100605.41;5051726;28;20209;-74
2022/05/31 00:11:37;;;;;;;0.70;0.70;;;;;;;8.48;79.60;100588.91;5051715;28;20209;-74
2022/05/31 00:14:04;;;;;;;1.17;0.80;;;;;;;8.49;80.35;100572.44;5051364;28;20330;-74
2022/05/31 00:16:31;;;;;;;1.23;1.10;;;;;;;8.62;79.91;100581.88;5051152;28;20733;-74
2022/05/31 00:18:59;;;;;;;2.33;1.00;;;;;;;8.68;78.87;100592.25;5051542;28;20213;-74
2022/05/31 00:21:38;;;;;;;1.00;1.00;;;;;;;8.69;79.38;100612.16;5051719;28;20250;-74
2022/05/31 00:24:06;;;;;;;1.17;1.00;;;;;;;8.56;79.60;100592.31;5051590;28;20235;-74
2022/05/31 00:26:33;;;;;;;2.77;1.10;;;;;;;8.49;79.32;100601.94;5051257;28;20208;-74
2022/05/31 00:28:59;;;;;;;1.20;1.10;;;;;;;8.42;79.29;100596.78;5051195;28;20209;-75
2022/05/31 00:31:26;;;;;;;1.60;1.00;;;;;;;8.31;79.09;100589.03;5051414;28;20270;-75
2022/05/31 00:33:53;;;;;;;2.53;1.00;;;;;;;8.26;80.19;100581.25;5051497;28;20274;-75
2022/05/31 00:36:21;;;;;;;2.30;1.30;;;;;;;8.21;79.67;100571.78;5051487;28;20667;-74
2022/05/31 00:38:48;;;;;;;1.77;1.10;;;;;;;8.27;79.64;100577.78;5051435;28;20209;-74
2022/05/31 00:41:26;;;;;;;1.37;1.00;;;;;;;8.30;79.65;100582.09;5051245;28;20271;-75
2022/05/31 00:43:57;;;;;;;1.40;1.03;;;;;;;8.25;79.46;100570.88;5051314;28;20231;-74
2022/05/31 00:46:26;;;;;;;1.90;1.00;;;;;;;8.24;79.89;100574.34;5051341;28;20285;-74
2022/05/31 00:48:57;;;;;;;1.17;1.07;;;;;;;8.12;79.73;100562.28;5051101;28;20229;-74
2022/05/31 00:51:34;;;;;;;1.67;1.00;;;;;;;8.12;79.80;100570.09;5051219;28;20205;-74
2022/05/31 00:54:05;;;;;;;1.17;0.90;;;;;;;8.09;80.96;100552.78;5051329;28;20321;-74
2022/05/31 00:56:32;;;;;;;1.60;1.20;;;;;;;8.03;81.17;100550.22;5051133;28;20201;-74
2022/05/31 00:59:02;;;;;;;1.07;0.90;;;;;;;8.08;81.22;100527.63;5051111;28;20243;-74
2022/05/31 01:01:30;;;;;;;1.23;1.13;;;;;;;8.16;81.32;100527.59;5051366;28;20208;-74
2022/05/31 01:03:59;;;;;;;1.07;0.93;;;;;;;8.21;80.30;100551.81;5051076;28;20630;-74
2022/05/31 01:06:28;;;;;;;2.17;1.13;;;;;;;8.28;80.19;100565.63;5050926;28;20252;-75
2022/05/31 01:08:58;;;;;;;1.27;1.17;;;;;;;8.28;79.52;100584.69;5051055;28;20260;-74
2022/05/31 01:11:27;;;;;;;1.97;1.07;;;;;;;8.30;79.12;100592.50;5051164;28;20240;-74
2022/05/31 01:13:54;;;;;;;2.33;1.43;;;;;;;8.30;78.99;100606.34;5051917;28;20272;-75
2022/05/31 01:16:21;;;;;;;1.30;1.20;;;;;;;8.19;79.64;100592.59;5054404;28;20210;-74
2022/05/31 01:18:48;;;;;;;1.50;1.30;;;;;;;8.15;79.05;100593.47;5054594;28;20218;-73
2022/05/31 01:21:16;;;;;;;2.43;1.07;;;;;;;8.05;80.25;100591.81;5054714;28;20209;-73
2022/05/31 01:23:50;;;;;;;2.33;1.80;;;;;;;7.91;80.30;100568.50;5054732;28;20594;-74
2022/05/31 01:26:22;;;;;;;1.70;1.40;;;;;;;7.88;80.56;100552.91;5054259;28;20651;-74
2022/05/31 01:28:57;;;;;;;1.90;1.30;;;;;;;7.90;80.99;100549.44;5046159;28;20583;-74
2022/05/31 01:31:29;;;;;;;3.30;1.20;;;;;;;7.94;80.83;100545.94;5054402;28;20185;-74
2022/05/31 01:34:02;;;;;;;1.97;1.20;;;;;;;7.95;81.21;100547.66;5054388;28;20279;-74
2022/05/31 01:36:35;;;;;;;1.17;1.07;;;;;;;7.90;80.72;100551.16;5054496;28;20251;-74
2022/05/31 01:39:04;;;;;;;1.10;1.00;;;;;;;7.90;80.58;100554.63;5053969;28;20190;-74
2022/05/31 01:41:35;;;;;;;2.27;1.10;;;;;;;7.87;81.14;100539.06;5054204;28;20225;-74
2022/05/31 01:44:05;;;;;;;1.27;1.17;;;;;;;7.79;82.78;100509.66;5054043;28;20704;-74
2022/05/31 01:46:34;;;;;;;1.30;0.83;;;;;;;7.77;82.76;100493.22;5053909;28;20206;-74
2022/05/31 01:49:02;;;;;;;2.40;1.10;;;;;;;7.76;81.66;100502.72;5053700;28;20226;-74
2022/05/31 01:51:30;;;;;;;1.90;1.23;;;;;;;7.72;81.79;100507.97;5053640;28;20752;-73
2022/05/31 01:53:59;;;;;;;1.40;1.20;;;;;;;7.71;81.68;100514.91;5053869;28;20284;-74
2022/05/31 01:56:27;;;;;;;1.70;1.33;;;;;;;7.69;81.82;100510.56;5053747;28;20723;-74
2022/05/31 01:58:55;;;;;;;5.70;1.10;;;;;;;7.64;82.41;100507.16;5053546;28;20197;-74
2022/05/31 02:01:23;;;;;;;1.07;0.97;;;;;;;7.61;83.07;100489.88;5053521;28;20683;-74
2022/05/31 02:03:50;;;;;;;1.30;1.10;;;;;;;7.55;82.62;100479.47;5053522;28;20236;-74
2022/05/31 02:06:24;;;;;;;1.43;1.00;;;;;;;7.49;83.38;100458.75;5053926;28;20208;-74
2022/05/31 02:08:52;;;;;;;1.77;0.90;;;;;;;7.49;84.00;100445.75;5053654;28;20236;-74
2022/05/31 02:11:19;;;;;;;1.57;0.93;;;;;;;7.54;83.90;100444.84;5053330;28;20212;-74
2022/05/31 02:13:46;;;;;;;1.17;1.10;;;;;;;7.61;83.39;100445.69;5053418;28;20225;-74
2022/05/31 02:16:12;;;;;;;1.87;1.20;;;;;;;7.56;83.55;100450.06;5054144;28;20296;-74
2022/05/31 02:21:24;;;;;;;1.73;1.17;;;;;;;7.58;83.16;100444.84;5053340;28;20282;-74
2022/05/31 02:23:50;;;;;;;1.10;1.00;;;;;;;7.52;84.88;100438.81;5053274;28;20233;-75
2022/05/31 02:26:18;;;;;;;1.57;0.90;;;;;;;7.63;84.58;100438.75;5052954;28;20252;-75
2022/05/31 02:28:44;;;;;;;1.67;0.80;;;;;;;7.61;83.46;100450.00;5053083;28;20225;-75
2022/05/31 02:31:12;;;;;;;2.13;0.80;;;;;;;7.63;83.65;100462.13;5053343;28;20263;-75
2022/05/31 02:33:38;;;;;;;2.27;0.80;;;;;;;7.63;83.88;100462.13;5052950;28;20230;-74
2022/05/31 02:36:05;;;;;;;1.10;1.00;;;;;;;7.59;83.04;100472.53;5053288;28;20213;-75
2022/05/31 02:38:31;;;;;;;1.00;0.80;;;;;;;7.56;83.18;100470.84;5052724;28;20217;-75
2022/05/31 02:40:58;;;;;;;2.20;1.00;;;;;;;7.60;82.96;100471.69;5052902;28;20216;-75
2022/05/31 02:43:26;;;;;;;1.10;0.93;;;;;;;7.66;82.80;100479.44;5052858;28;20616;-75
2022/05/31 02:45:55;;;;;;;1.60;1.00;;;;;;;7.68;82.25;100488.94;5052935;28;20213;-75
2022/05/31 02:48:22;;;;;;;2.47;1.00;;;;;;;7.62;82.91;100490.72;5052703;28;20287;-75
2022/05/31 02:50:49;;;;;;;1.37;1.00;;;;;;;7.60;83.17;100476.88;5052875;28;20205;-74
2022/05/31 02:53:15;;;;;;;1.77;0.70;;;;;;;7.64;83.17;100476.84;5052323;28;20259;-74
2022/05/31 02:55:42;;;;;;;0.70;0.70;;;;;;;7.63;83.69;100463.84;5053044;28;20211;-74
2022/05/31 02:58:08;;;;;;;1.87;1.07;;;;;;;7.70;83.32;100460.34;5052984;28;20205;-74
2022/05/31 03:00:36;;;;;;;0.77;0.77;;;;;;;7.71;84.01;100457.75;5052647;28;20205;-74
2022/05/31 03:03:02;;;;;;;1.07;0.80;;;;;;;7.66;82.78;100461.25;5052340;28;20591;-74
2022/05/31 03:05:29;;;;;;;1.10;1.00;;;;;;;7.58;83.60;100471.69;5052578;28;20294;-74
2022/05/31 03:07:55;;;;;;;2.13;1.10;;;;;;;7.64;82.57;100481.19;5052501;28;20240;-74
2022/05/31 03:10:22;;;;;;;0.90;0.83;;;;;;;7.50;83.19;100479.53;5052330;28;20213;-74
2022/05/31 03:12:51;;;;;;;1.20;1.20;;;;;;;7.42;83.13;100483.03;5052858;28;20206;-74
2022/05/31 03:15:21;;;;;;;1.47;1.03;;;;;;;7.39;82.75;100478.72;5052242;28;20232;-75
2022/05/31 03:17:52;;;;;;;1.23;1.10;;;;;;;7.34;83.63;100463.16;5052126;28;20198;-74
2022/05/31 03:20:25;;;;;;;4.03;1.10;;;;;;;7.38;83.93;100456.22;5052000;28;20741;-74
2022/05/31 03:22:57;;;;;;;2.40;0.90;;;;;;;7.36;83.95;100452.78;5052599;28;20255;-74
2022/05/31 03:25:28;;;;;;;1.80;1.00;;;;;;;7.35;84.47;100445.84;5052234;28;20225;-74
2022/05/31 03:27:58;;;;;;;1.10;1.10;;;;;;;7.45;84.43;100437.16;5052392;28;20240;-74
2022/05/31 03:30:24;;;;;;;2.83;1.00;;;;;;;7.49;83.74;100438.84;5051667;28;20209;-74
2022/05/31 03:32:54;;;;;;;1.40;1.27;;;;;;;7.38;84.19;100443.25;5052043;28;20212;-75
2022/05/31 03:35:20;;;;;;;1.57;1.43;;;;;;;7.19;84.44;100426.88;5052197;28;20221;-74
2022/05/31 03:37:47;;;;;;;2.07;1.30;;;;;;;7.21;85.26;100408.72;5051236;28;20609;-74
2022/05/31 03:40:56;;;;;;;4.10;1.10;;;;;;;7.23;84.95;100422.53;5051717;28;20262;-74
2022/05/31 03:43:01;;;;;;;1.53;1.20;;;;;;;7.31;83.51;100431.16;5051781;28;20217;-74
2022/05/31 03:45:32;;;;;;;1.37;1.00;;;;;;;7.36;84.25;100460.56;5051690;28;20295;-74
2022/05/31 03:48:00;;;;;;;1.20;1.10;;;;;;;7.26;83.76;100451.09;5051749;28;20225;-74
2022/05/31 03:50:27;;;;;;;3.67;1.20;;;;;;;7.27;83.98;100445.03;5051654;28;20205;-74
2022/05/31 03:52:53;;;;;;;1.27;1.10;;;;;;;7.26;84.83;100444.16;5051532;28;20675;-74
2022/05/31 03:55:20;;;;;;;4.23;1.37;;;;;;;7.30;84.16;100430.28;5051088;28;20230;-74
2022/05/31 03:57:47;;;;;;;1.47;1.37;;;;;;;7.38;84.48;100442.38;5043435;28;20205;-74
2022/05/31 04:00:15;;;;;;;1.60;1.50;;;;;;;7.40;83.98;100438.91;5051807;28;20295;-74
2022/05/31 04:02:41;;;;;;;4.70;1.53;;;;;;;7.40;84.57;100441.50;5051288;28;20694;-74
2022/05/31 04:05:09;;;;;;;2.90;1.63;;;;;;;7.41;84.41;100443.19;5051741;28;20233;-74
2022/05/31 04:07:36;;;;;;;1.60;1.23;;;;;;;7.45;84.59;100433.66;5052010;28;20209;-74
2022/05/31 04:10:03;;;;;;;1.13;1.03;;;;;;;7.36;84.41;100435.44;5051198;28;20229;-74
2022/05/31 04:12:30;;;;;;;2.17;1.40;;;;;;;7.34;84.64;100421.63;5051786;28;20205;-74
2022/05/31 04:14:56;;;;;;;1.60;1.30;;;;;;;7.32;84.69;100419.91;5051864;28;20237;-74
2022/05/31 04:17:23;;;;;;;2.40;1.90;;;;;;;7.40;84.75;100417.28;5051727;28;20205;-74
2022/05/31 04:19:50;;;;;;;1.77;1.40;;;;;;;7.48;84.38;100424.13;5051346;28;20267;-74
2022/05/31 04:22:17;;;;;;;1.90;1.23;;;;;;;7.51;84.81;100428.44;5051815;28;20206;-74
2022/05/31 04:24:44;;;;;;;2.23;1.50;;;;;;;7.58;85.30;100431.88;5051297;28;20973;-74
2022/05/31 04:27:15;;;;;;;1.50;1.40;;;;;;;7.68;84.88;100431.78;5051389;28;20209;-74
2022/05/31 04:29:42;;;;;;;2.10;1.53;;;;;;;7.72;84.84;100435.22;5051131;28;20642;-74
2022/05/31 04:32:09;;;;;;;2.80;1.73;;;;;;;7.79;83.90;100449.91;5051685;28;20210;-74
2022/05/31 04:34:35;;;;;;;2.67;1.77;;;;;;;7.83;84.02;100451.59;5051293;28;20233;-75
2022/05/31 04:37:02;;;;;;;1.60;1.50;;;;;;;7.89;84.59;100445.50;5051351;28;20546;-75
2022/05/31 04:39:29;;;;;;;1.73;1.63;;;;;;;7.98;84.11;100447.16;5051353;28;20235;-74
2022/05/31 04:41:56;;;;;;;2.20;2.00;;;;;;;8.02;84.15;100449.69;5051433;28;20266;-75
2022/05/31 04:44:22;;;;;;;3.93;2.20;;;;;;;8.05;84.52;100444.50;5051527;28;20229;-75
2022/05/31 04:46:49;;;;;;;2.40;2.20;;;;;;;8.07;84.33;100447.94;5050881;28;20251;-74
2022/05/31 04:49:16;;;;;;;2.20;2.10;;;;;;;8.10;84.88;100437.50;5053637;28;20248;-74
2022/05/31 04:51:43;;;;;;;2.20;2.00;;;;;;;8.17;84.69;100427.94;5054904;28;20210;-74
2022/05/31 04:54:10;;;;;;;2.03;1.83;;;;;;;8.20;85.60;100417.47;5055040;28;20801;-75
2022/05/31 04:56:38;;;;;;;3.13;1.90;;;;;;;8.25;85.25;100417.44;5054365;28;20201;-75
2022/05/31 04:59:04;;;;;;;3.00;2.63;;;;;;;8.32;84.74;100427.78;5054364;28;20702;-75
2022/05/31 05:01:34;;;;;;;3.53;2.17;;;;;;;8.38;84.27;100442.44;5055077;28;20204;-75
2022/05/31 05:04:00;;;;;;;3.13;2.93;;;;;;;8.39;83.41;100458.94;5054787;28;20370;-74
2022/05/31 05:06:27;;;;;;;2.50;2.30;;;;;;;8.38;84.16;100454.59;5054832;28;20209;-75
2022/05/31 05:08:53;;;;;;;2.50;2.30;;;;;;;8.43;84.74;100448.50;5054710;28;20229;-74
2022/05/31 05:11:22;;;;;;;2.30;2.00;;;;;;;8.51;84.73;100444.09;5054856;28;20208;-75
2022/05/31 05:13:51;;;;;;;2.63;2.40;;;;;;;8.60;83.69;100447.47;5054859;28;20222;-75
2022/05/31 05:16:18;;;;;;;2.60;2.40;;;;;;;8.67;84.33;100449.97;5054797;28;20227;-75
2022/05/31 05:18:45;;;;;;;3.00;2.20;;;;;;;8.77;83.95;100458.56;5054322;28;20205;-74
2022/05/31 05:21:13;;;;;;;2.33;2.13;;;;;;;8.89;83.90;100447.13;5054333;28;20667;-75
2022/05/31 05:23:41;;;;;;;2.43;2.07;;;;;;;9.10;83.84;100443.41;5054812;28;20229;-75
2022/05/31 05:26:07;;;;;;;4.23;3.03;;;;;;;9.28;82.91;100463.16;5054482;28;20221;-75
2022/05/31 05:31:22;;;;;;;2.93;2.73;;;;;;;9.43;83.00;100477.69;5054198;28;20590;-75
2022/05/31 05:33:48;;;;;;;3.93;2.40;;;;;;;9.45;82.61;100486.34;5054341;28;20225;-74
2022/05/31 05:36:15;;;;;;;2.70;2.50;;;;;;;9.44;82.46;100492.47;5054228;28;20706;-74
2022/05/31 05:38:42;;;;;;;2.47;2.33;;;;;;;9.42;82.62;100497.69;5053646;28;20243;-75
2022/05/31 05:41:09;;;;;;;2.77;2.17;;;;;;;9.45;83.16;100491.56;5053976;28;20217;-75
2022/05/31 05:43:35;;;;;;;3.10;2.80;;;;;;;9.47;83.26;100488.06;5054215;28;20218;-75
2022/05/31 05:46:02;;;;;;;3.10;2.50;;;;;;;9.52;83.36;100474.97;5051914;28;20693;-75
2022/05/31 05:48:30;;;;;;;3.30;2.57;;;;;;;9.52;84.12;100468.00;5049846;28;20244;-75
2022/05/31 05:50:56;;;;;;;3.77;3.20;;;;;;;9.59;84.09;100457.50;5044031;28;20619;-75
2022/05/31 05:53:23;;;;;;;3.27;2.97;;;;;;;9.57;84.92;100436.66;5043171;28;20567;-75
2022/05/31 05:55:49;;;;;;;2.90;2.60;;;;;;;9.64;84.62;100429.63;5043605;28;20226;-75
2022/05/31 05:58:15;;;;;;;3.70;2.97;;;;;;;9.65;85.13;100429.63;5052293;28;20676;-75
2022/05/31 06:00:48;;;;;;;2.80;2.60;;;;;;;9.75;84.70;100432.91;5045381;28;20198;-75
2022/05/31 06:03:18;;;;;;;3.33;3.07;;;;;;;9.74;85.50;100419.03;5044459;28;20262;-75
2022/05/31 06:05:47;;;;;;;2.90;2.70;;;;;;;9.79;85.54;100410.28;5044393;28;20196;-74
2022/05/31 06:08:20;;;;;;;4.77;3.27;;;;;;;9.85;84.94;100423.22;5044297;28;20202;-74
2022/05/31 06:10:55;;;;;;;3.27;2.80;;;;;;;9.93;84.39;100432.66;5042500;28;20192;-74
2022/05/31 06:13:27;;;;;;;3.07;2.77;;;;;;;9.94;84.99;100434.34;5043792;28;20790;-74
2022/05/31 06:15:56;;;;;;;3.20;3.00;;;;;;;9.97;85.01;100432.56;5041593;28;20206;-74
2022/05/31 06:18:28;;;;;;;3.53;3.23;;;;;;;9.82;86.54;100407.63;5044049;28;20197;-74
2022/05/31 06:21:00;;;;;;;3.90;3.50;;;;;;;9.89;86.85;100384.03;5043518;28;20194;-74
2022/05/31 06:23:27;;;;;;;4.60;3.00;;;;;;;10.02;86.29;100387.28;5042887;28;20221;-74
2022/05/31 06:25:54;;;;;;;2.93;2.70;;;;;;;10.12;86.11;100394.06;5043223;28;20197;-74
2022/05/31 06:28:21;;;;;;;3.30;3.00;;;;;;;10.26;85.19;100411.22;5050933;28;20207;-74
2022/05/31 06:30:47;;;;;;;2.90;2.60;;;;;;;10.38;84.92;100420.59;5045019;28;20991;-74
2022/05/31 06:33:13;;;;;;;3.77;3.17;;;;;;;10.40;84.32;100448.38;5043389;28;20204;-74
2022/05/31 06:35:40;;;;;;;3.50;3.20;;;;;;;10.49;84.16;100455.19;5041863;28;20272;-73
2022/05/31 06:38:08;;;;;;;4.33;3.93;;;;;;;10.58;83.90;100473.28;5042867;28;20199;-73
2022/05/31 06:40:34;;;;;;;2.77;2.57;;;;;;;10.67;82.77;100494.00;5043146;28;20251;-73
2022/05/31 06:43:00;;;;;;;4.77;3.13;;;;;;;10.77;83.02;100499.06;5043487;28;20215;-73
2022/05/31 06:45:27;;;;;;;3.87;2.30;;;;;;;10.88;83.20;100487.53;5042103;28;20706;-73
2022/05/31 06:47:53;;;;;;;3.07;2.77;;;;;;;11.00;81.37;100517.75;5041432;28;20663;-73
2022/05/31 06:50:20;;;;;;;3.50;2.40;;;;;;;11.19;81.48;100540.91;5043113;28;20219;-73
2022/05/31 06:58:15;;;;;;;2.77;1.60;;;;;;;11.48;74.32;100773.81;5050536;28;20209;-73
2022/05/31 07:00:42;;;;;;;2.60;1.93;;;;;;;11.55;73.20;100803.31;5042947;28;20233;-73
2022/05/31 07:03:09;;;;;;;3.10;2.20;;;;;;;11.64;72.58;100839.78;5042293;28;20272;-74
2022/05/31 07:05:35;;;;;;;3.53;2.23;;;;;;;11.71;72.24;100851.88;5041266;28;20208;-73
2022/05/31 07:08:02;;;;;;;3.13;1.80;;;;;;;11.79;71.43;100877.03;5042614;28;20737;-73
2022/05/31 07:10:28;;;;;;;4.30;1.93;;;;;;;11.86;71.27;100881.28;5041853;28;20219;-74
2022/05/31 07:12:56;;;;;;;1.67;1.57;;;;;;;11.97;70.32;100891.56;5040176;28;20196;-74
2022/05/31 07:15:24;;;;;;;1.50;1.40;;;;;;;12.05;69.61;100926.31;5041114;28;20642;-74
2022/05/31 07:17:51;;;;;;;1.77;1.40;;;;;;;12.06;69.02;100944.59;5041242;28;20246;-74
2022/05/31 07:20:18;;;;;;;1.80;1.70;;;;;;;12.14;69.59;100935.78;5041725;28;20664;-74
2022/05/31 07:22:44;;;;;;;2.20;1.70;;;;;;;12.26;70.25;100917.22;5041143;28;20928;-74
2022/05/31 07:25:11;;;;;;;3.93;2.03;;;;;;;12.35;69.42;100929.28;5041327;28;20223;-74
2022/05/31 07:27:38;;;;;;;3.37;1.90;;;;;;;12.39;68.59;100925.72;5049175;28;20281;-74
2022/05/31 07:30:07;;;;;;;2.60;1.70;;;;;;;12.40;67.66;100966.72;5046907;28;20226;-74
2022/05/31 07:32:33;;;;;;;2.73;1.90;;;;;;;12.41;68.67;100964.09;5042138;28;20256;-74
2022/05/31 07:35:00;;;;;;;2.73;1.40;;;;;;;12.51;67.54;100970.88;5040246;28;20285;-74
2022/05/31 07:37:26;;;;;;;2.97;1.30;;;;;;;12.62;67.67;100985.50;5041920;28;20253;-74
2022/05/31 07:39:53;;;;;;;2.37;1.20;;;;;;;12.62;68.80;100934.00;5041849;28;20203;-74
2022/05/31 07:42:20;;;;;;;1.60;1.10;;;;;;;12.73;64.38;101016.75;5040400;28;20216;-74
2022/05/31 07:44:46;;;;;;;1.53;1.10;;;;;;;12.77;60.34;101099.66;5041610;28;20296;-74
2022/05/31 07:47:14;;;;;;;2.20;0.97;;;;;;;12.89;60.04;101173.66;5040102;28;20213;-74
2022/05/31 07:49:40;;;;;;;0.90;0.83;;;;;;;13.02;60.58;101200.53;5041665;28;20611;-74
2022/05/31 07:52:08;;;;;;;1.50;0.93;;;;;;;13.06;63.33;101086.88;5041504;28;20251;-74
2022/05/31 07:54:34;;;;;;;1.77;0.80;;;;;;;13.11;63.69;101175.91;5040451;28;20225;-73
2022/05/31 07:57:04;;;;;;;0.90;0.90;;;;;;;12.98;55.27;101180.47;5047171;28;20257;-74
2022/05/31 07:59:31;;;;;;;1.37;0.80;;;;;;;13.05;58.55;101330.66;5048095;28;20203;-74
2022/05/31 08:01:58;;;;;;;4.13;0.90;;;;;;;13.12;58.34;101311.31;5042079;28;20196;-74
2022/05/31 08:04:26;;;;;;;1.13;0.80;;;;;;;13.17;57.19;101243.94;5040452;28;20224;-74
2022/05/31 08:06:53;;;;;;;1.23;0.70;;;;;;;13.30;57.11;101260.38;5040778;28;20289;-74
2022/05/31 08:09:21;;;;;;;0.97;0.70;;;;;;;13.36;55.03;101306.59;5042066;28;20231;-74
2022/05/31 08:11:48;;;;;;;1.50;0.70;;;;;;;13.36;52.87;101319.72;5041015;28;20203;-74
2022/05/31 08:14:14;;;;;;;1.87;0.83;;;;;;;13.47;53.31;101380.72;5040398;28;20785;-74
2022/05/31 08:16:40;;;;;;;1.43;0.70;;;;;;;13.57;53.29;101395.44;5042284;28;20245;-74
2022/05/31 08:19:07;;;;;;;0.93;0.63;;;;;;;13.64;54.31;101393.59;5040260;28;20307;-74
2022/05/31 08:21:35;;;;;;;1.00;0.70;;;;;;;13.72;54.08;101389.06;5040276;28;20199;-74
2022/05/31 08:24:04;;;;;;;1.73;0.80;;;;;;;13.72;56.71;101396.09;5044611;28;20219;-74
2022/05/31 08:26:31;;;;;;;1.33;1.23;;;;;;;13.70;57.07;101257.06;5047634;28;20215;-74
2022/05/31 08:28:57;;;;;;;1.37;0.97;;;;;;;13.70;51.72;101335.75;5053904;28;20792;-74
2022/05/31 08:31:27;;;;;;;1.07;0.80;;;;;;;13.87;53.79;101359.97;5045911;28;20220;-74
2022/05/31 08:33:54;;;;;;;1.77;1.00;;;;;;;13.93;52.38;101368.59;5045309;28;20314;-74
2022/05/31 08:36:21;;;;;;;2.57;0.80;;;;;;;14.02;52.31;101392.94;5044189;28;20204;-74
2022/05/31 08:38:49;;;;;;;1.43;0.90;;;;;;;14.09;50.50;101380.53;5044836;28;20208;-74
2022/05/31 08:41:24;;;;;;;1.70;0.60;;;;;;;14.09;54.88;101404.16;5045648;28;20208;-74
2022/05/31 08:44:01;;;;;;;2.13;0.90;;;;;;;14.15;51.69;101342.81;5045816;28;20647;-74
2022/05/31 08:46:37;;;;;;;1.00;0.80;;;;;;;14.17;48.57;101307.78;5045982;28;20199;-74
2022/05/31 08:49:13;;;;;;;3.03;0.80;;;;;;;14.18;50.94;101485.41;5044932;28;20600;-74
2022/05/31 08:51:53;;;;;;;2.20;0.80;;;;;;;14.26;49.62;101438.88;5045749;28;20930;-75
2022/05/31 08:57:16;;;;;;;2.60;2.03;;;;;;;14.36;49.39;101401.94;5051932;28;20326;-74
2022/05/31 08:59:50;;;;;;;1.40;0.90;;;;;;;14.44;50.00;101424.53;5050342;28;20199;-74
2022/05/31 09:02:22;;;;;;;1.97;1.07;;;;;;;14.38;48.19;101361.59;5043806;28;20256;-74
2022/05/31 09:04:56;;;;;;;2.60;1.27;;;;;;;14.48;52.56;101470.00;5045352;28;20224;-74
2022/05/31 09:07:28;;;;;;;2.17;1.50;;;;;;;14.37;47.49;101338.88;5045636;28;20265;-74
2022/05/31 09:10:01;;;;;;;2.17;1.00;;;;;;;14.39;47.80;101443.91;5044774;28;20204;-74
2022/05/31 09:12:34;;;;;;;2.00;1.40;;;;;;;14.42;47.71;101486.75;5045534;28;20250;-74
2022/05/31 09:15:05;;;;;;;1.20;1.10;;;;;;;14.53;49.87;101490.94;5045055;28;20704;-74
2022/05/31 09:17:40;;;;;;;1.43;1.30;;;;;;;14.65;50.84;101423.28;5044466;28;20260;-74
2022/05/31 09:20:13;;;;;;;2.50;1.30;;;;;;;14.59;43.80;101346.31;5044636;28;20192;-75
2022/05/31 09:22:44;;;;;;;1.13;1.03;;;;;;;14.76;47.23;101478.25;5045334;28;20253;-74
2022/05/31 09:25:13;;;;;;;3.20;1.90;;;;;;;14.86;48.53;101468.41;5044108;28;20635;-74
2022/05/31 09:27:44;;;;;;;2.17;1.40;;;;;;;14.95;51.44;101475.28;5050464;28;20686;-75
2022/05/31 09:30:15;;;;;;;2.17;1.60;;;;;;;15.06;51.33;101392.66;5049000;28;20232;-74
2022/05/31 09:32:55;;;;;;;1.43;1.33;;;;;;;15.16;50.61;101369.59;5044613;28;20250;-74
2022/05/31 09:35:42;;;;;;;1.73;1.50;;;;;;;14.87;45.31;101358.00;5044078;28;20225;-74
2022/05/31 09:38:40;;;;;;;2.10;1.13;;;;;;;14.99;47.50;101427.84;5044829;28;20199;-74
2022/05/31 09:41:14;;;;;;;1.70;1.30;;;;;;;15.01;46.07;101399.75;5028275;28;20620;-75
2022/05/31 09:43:43;;;;;;;3.30;1.60;;;;;;;15.15;46.98;101456.44;5042729;28;20221;-74
2022/05/31 09:46:12;;;;;;;2.00;1.23;;;;;;;15.29;47.80;101459.63;5044092;28;20205;-74
2022/05/31 09:48:46;;;;;;;2.93;1.50;;;;;;;15.42;47.95;101449.69;5044238;28;20201;-74
2022/05/31 09:51:21;;;;;;;4.67;1.60;;;;;;;15.67;49.29;101403.47;5046357;28;20224;-73
2022/05/31 09:59:24;;;;;;;2.47;1.47;;;;;;;15.94;48.49;101358.09;5051906;28;20197;-74
2022/05/31 10:01:51;;;;;;;1.60;1.20;;;;;;;16.10;48.10;101372.59;5044424;28;20201;-73
2022/05/31 10:04:23;;;;;;;3.03;1.63;;;;;;;16.21;47.82;101380.19;5043973;28;20221;-74
2022/05/31 10:06:56;;;;;;;1.60;1.07;;;;;;;16.26;48.56;101402.88;5044526;28;20216;-74
2022/05/31 10:09:29;;;;;;;2.20;1.47;;;;;;;16.38;48.34;101377.94;5044119;28;20194;-74
2022/05/31 10:12:13;;;;;;;3.00;1.30;;;;;;;16.41;48.58;101361.19;5044380;28;20214;-73
2022/05/31 10:14:43;;;;;;;2.43;1.40;;;;;;;16.53;47.10;101338.88;5044476;28;20224;-74
2022/05/31 10:17:32;;;;;;;3.23;1.53;;;;;;;16.45;43.26;101342.63;5043766;28;20201;-74
2022/05/31 10:20:13;;;;;;;2.37;1.10;;;;;;;16.36;44.95;101452.69;5043558;28;20197;-74
2022/05/31 10:22:40;;;;;;;1.83;1.40;;;;;;;16.36;45.14;101463.22;5043961;28;20209;-75
2022/05/31 10:25:19;;;;;;;3.23;1.40;;;;;;;16.48;45.77;101444.44;5043368;28;20220;-74
2022/05/31 10:27:47;;;;;;;2.20;1.40;;;;;;;16.48;45.95;101426.84;5050159;28;20201;-75
2022/05/31 10:30:20;;;;;;;3.00;1.50;;;;;;;16.57;45.42;101404.66;5047359;28;20585;-76
2022/05/31 10:32:51;;;;;;;1.67;1.20;;;;;;;16.32;44.38;101441.38;5043808;28;20281;-74
2022/05/31 10:35:20;;;;;;;1.87;1.20;;;;;;;16.44;45.04;101432.25;5043650;28;20221;-73
2022/05/31 10:37:55;;;;;;;3.23;1.70;;;;;;;16.44;44.17;101432.25;5043574;28;20695;-73
2022/05/31 10:40:26;;;;;;;2.20;1.13;;;;;;;16.53;44.93;101439.94;5035688;28;20208;-74
2022/05/31 10:43:02;;;;;;;1.33;1.13;;;;;;;16.45;45.88;101455.94;5032960;28;20568;-73
2022/05/31 10:45:32;;;;;;;2.43;1.37;;;;;;;16.41;44.97;101433.22;5032608;28;20233;-72
2022/05/31 10:48:00;;;;;;;1.60;1.30;;;;;;;16.48;46.09;101424.22;5032496;28;20650;-72
2022/05/31 10:50:48;;;;;;;1.43;1.17;;;;;;;16.62;45.70;101408.00;5032397;28;20222;-72
2022/05/31 10:53:25;;;;;;;2.40;1.53;;;;;;;16.86;45.19;101384.50;5033097;28;20182;-72
2022/05/31 10:55:57;;;;;;;2.07;1.37;;;;;;;16.99;44.94;101367.41;5033616;28;20205;-73
2022/05/31 10:58:58;;;;;;;2.03;1.40;;;;;;;17.16;45.28;101382.69;5052591;28;20663;-72
2022/05/31 11:01:47;;;;;;;2.77;1.20;;;;;;;17.25;45.82;101377.16;5051059;28;20582;-73
2022/05/31 11:04:32;;;;;;;2.53;1.60;;;;;;;17.40;45.02;101372.28;5052245;28;20630;-72
2022/05/31 11:07:11;;;;;;;1.40;1.30;;;;;;;17.58;44.38;101382.25;5052466;28;20271;-73
2022/05/31 11:12:56;;;;;;;1.87;1.77;;;;;;;18.09;41.86;101404.34;5042876;28;20198;-73
2022/05/31 11:15:36;;;;;;;2.23;1.30;;;;;;;18.28;42.46;101438.06;5040680;28;20233;-72
2022/05/31 11:18:36;;;;;;;1.57;1.10;;;;;;;18.36;41.16;101465.09;5052014;28;20232;-72
2022/05/31 11:21:11;;;;;;;1.30;1.20;;;;;;;18.77;41.28;101468.91;5052173;28;20591;-72
2022/05/31 11:23:54;;;;;;;3.03;1.60;;;;;;;18.96;40.61;101482.31;5052231;28;20229;-73
2022/05/31 11:26:35;;;;;;;2.20;1.70;;;;;;;18.93;39.37;101484.22;5052081;28;20297;-73
2022/05/31 11:29:25;;;;;;;2.33;1.70;;;;;;;18.93;41.39;101490.38;5045411;28;20204;-73
2022/05/31 11:31:59;;;;;;;3.60;1.33;;;;;;;19.06;39.88;101482.84;5052521;28;20218;-72
2022/05/31 11:34:39;;;;;;;2.60;1.90;;;;;;;19.23;39.54;101487.50;5051761;28;20222;-73
2022/05/31 11:37:24;;;;;;;2.10;1.30;;;;;;;20.19;39.99;101481.91;5051962;28;20251;-73
2022/05/31 11:40:03;;;;;;;2.07;1.20;;;;;;;22.01;38.50;101503.69;5051980;28;20205;-74
2022/05/31 11:42:42;;;;;;;1.07;1.03;;;;;;;23.32;35.38;101515.53;5051840;28;20218;-74
2022/05/31 11:45:20;;;;;;;2.50;1.67;;;;;;;22.57;32.11;101573.59;5051787;28;20225;-74
2022/05/31 11:48:03;;;;;;;2.03;1.60;;;;;;;20.60;34.63;101628.72;5052032;28;20190;-73
2022/05/31 11:50:44;;;;;;;1.83;1.73;;;;;;;21.08;36.28;101607.22;5051260;28;20686;-75
2022/05/31 11:53:43;;;;;;;2.30;1.60;;;;;;;20.68;37.29;101596.56;5052152;28;20251;-73
2022/05/31 11:56:15;;;;;;;1.70;1.27;;;;;;;21.06;37.24;101526.78;5051500;28;20613;-73
2022/05/31 11:58:47;;;;;;;2.63;1.30;;;;;;;21.41;39.23;101501.25;5050662;28;20197;-73
2022/05/31 12:01:19;;;;;;;1.90;1.23;;;;;;;21.84;37.11;101474.41;5051657;28;20739;-73
2022/05/31 12:03:58;;;;;;;1.57;1.43;;;;;;;22.62;35.58;101488.22;5051335;28;20276;-73
2022/05/31 12:06:34;;;;;;;1.83;1.30;;;;;;;23.44;34.10;101495.34;5051585;28;20217;-75